Portada
METAR-TAF:

METAR-TAF

Aeroports :

Dar es Salaam, Tanzània

latitud: 06-52S, longitud: 039-12E, altitud: 55 m

Observació

L'informe es va fer fa 48 minuts, a les 18:00 UTC
Vent 2 kt amb direcció variable
Temperatura 26°C
Humitat 84%
Pressió 1016 hPa
Visibilitat 10 km o més
Escasses núvols a una alçada de 1200 ft

METAR: HTDA 261800Z VRB02KT 9999 FEW012 26/23 Q1016 NOSIG

Hora: 21:48 (18:48 UTC)

Pronòstic

L'informe es va fer fa 1 hora i 48 minuts, a les 17:00 UTC
Pronòstic vàlid del 26 a les 18 UTC al 27 a les 24 UTC
Vent 5 kt del Sud-Est
Visibilitat 10 km o més
Núvols disperses a una alçada de 1600 ft
Evolucionant progressivament
l' 27 a les 07 UTC al 27 a les 10 UTC
Vent 15 kt del Sud
Cel ennuvolat a una alçada de 2200 ft

TAF: HTDA 261700Z 2618/2724 14005KT 9999 SCT016 BECMG 2707/2710 17015KT BKN022

Observacions i pronòstics meteorològics de més de 4000 aeroports (METAR i TAF).

Les estacions disponibles són els punts grocs i vermells al mapa.

Posi el ratolí al punt desitjat per veure el nom de l'estació.

Feu clic per veure les observacions i els pronòstics meteorològics.

Per canviar el mapa: feu clic els botons verds amb una creu de color negre per apropar; al botó verd amb un guió per allunyar la imatge; o en les fletxes verdes per a mapes adjacents.


METAR-TAF: